Time;durP1;ratioP1;P1;durP2;ratioP2;P2;SDS_P1;SDS_P2;PMS_P1;PMS_P2;Temp;Humidity;BMP_temperature;BMP_pressure;BME280_temperature;BME280_humidity;BME280_pressure;Samples;Min_cycle;Max_cycle;Signal;HPM_P1;HPM_P2
2022/05/18 00:14:57;;;;;;;3.60;1.75;;;13.70;99.90;;;;;;5445204;23;20061;-79
2022/05/18 00:17:23;;;;;;;7.45;1.45;;;13.60;99.90;;;;;;4971645;28;20027;-79
2022/05/18 00:19:48;;;;;;;5.22;2.00;;;13.50;99.90;;;;;;4971867;28;20126;-79
2022/05/18 00:22:15;;;;;;;1.52;1.25;;;13.40;99.90;;;;;;4971657;28;20034;-79
2022/05/18 00:24:40;;;;;;;5.38;2.00;;;13.30;99.90;;;;;;4962485;28;20425;-79
2022/05/18 00:27:06;;;;;;;3.22;1.30;;;13.30;99.90;;;;;;4952357;29;20031;-79
2022/05/18 00:29:33;;;;;;;2.63;1.52;;;13.20;99.90;;;;;;4951485;28;20042;-79
2022/05/18 00:31:59;;;;;;;3.60;1.65;;;13.10;99.90;;;;;;4951364;29;20361;-79
2022/05/18 00:34:25;;;;;;;1.45;1.00;;;13.20;99.90;;;;;;4952064;28;20037;-79
2022/05/18 00:36:51;;;;;;;3.90;1.45;;;13.10;99.90;;;;;;4950960;29;20020;-79
2022/05/18 00:39:17;;;;;;;7.13;1.40;;;13.10;99.90;;;;;;4951960;29;20392;-79
2022/05/18 00:41:42;;;;;;;3.50;1.40;;;13.10;99.90;;;;;;4952438;29;20055;-79
2022/05/18 00:44:08;;;;;;;3.97;1.30;;;13.00;99.90;;;;;;4951654;28;20023;-79
2022/05/18 00:46:34;;;;;;;6.18;1.40;;;12.90;99.90;;;;;;4951493;29;20046;-79
2022/05/18 00:49:03;;;;;;;1.45;1.08;;;12.80;99.90;;;;;;4952194;29;20046;-79
2022/05/18 00:51:40;;;;;;;4.03;1.52;;;12.80;99.90;;;;;;4951641;29;20023;-79
2022/05/18 00:54:08;;;;;;;2.92;0.85;;;12.80;99.90;;;;;;4951684;28;20054;-79
2022/05/18 00:57:00;;;;;;;1.55;0.73;;;12.80;99.90;;;;;;4951717;29;20698;-79
2022/05/18 00:59:36;;;;;;;3.72;1.00;;;12.70;99.90;;;;;;4952010;29;20046;-79
2022/05/18 01:02:03;;;;;;;1.10;0.73;;;12.60;99.90;;;;;;4950706;29;20111;-79
2022/05/18 01:04:28;;;;;;;1.10;1.00;;;12.50;99.90;;;;;;4951877;28;20027;-79
2022/05/18 01:06:59;;;;;;;2.95;0.85;;;12.40;99.90;;;;;;4951206;29;20027;-78
2022/05/18 01:09:35;;;;;;;1.63;0.90;;;12.40;99.90;;;;;;4951417;28;20066;-79
2022/05/18 01:12:02;;;;;;;3.65;0.70;;;12.30;99.90;;;;;;4951537;29;20548;-79
2022/05/18 02:14:02;;;;;;;4.72;1.30;;;10.80;99.90;;;;;;5920776;23;19921;-78
2022/05/18 02:16:28;;;;;;;0.95;0.60;;;10.80;99.90;;;;;;4928028;29;20512;-77
2022/05/18 02:18:54;;;;;;;1.25;0.90;;;10.80;99.90;;;;;;4917670;29;20049;-78
2022/05/18 02:21:20;;;;;;;3.28;0.90;;;10.70;99.90;;;;;;4918055;29;20028;-78
2022/05/18 02:23:45;;;;;;;0.63;0.60;;;10.70;99.90;;;;;;4918068;29;20399;-78
2022/05/18 02:26:15;;;;;;;1.52;0.80;;;10.60;99.90;;;;;;4936045;29;20102;-78
2022/05/18 02:28:41;;;;;;;1.15;0.75;;;10.60;99.90;;;;;;4935651;29;20063;-78
2022/05/18 02:31:07;;;;;;;1.25;0.85;;;10.60;99.90;;;;;;4935725;29;20019;-78
2022/05/18 02:33:33;;;;;;;1.00;0.88;;;10.40;99.90;;;;;;4919063;29;20023;-78
2022/05/18 02:35:59;;;;;;;0.68;0.68;;;10.30;99.90;;;;;;4935801;29;20465;-78
2022/05/18 02:38:24;;;;;;;0.70;0.52;;;10.20;99.90;;;;;;4935719;29;20051;-77
2022/05/18 02:40:50;;;;;;;1.77;0.95;;;10.20;99.90;;;;;;4935730;29;20075;-77
2022/05/18 02:43:16;;;;;;;1.45;0.77;;;10.20;99.90;;;;;;4935466;29;20193;-78
2022/05/18 02:45:41;;;;;;;3.25;0.90;;;10.20;99.90;;;;;;4935634;29;20470;-78
2022/05/18 02:48:07;;;;;;;1.83;0.95;;;10.20;99.90;;;;;;4935567;29;20107;-78
2022/05/18 02:50:33;;;;;;;1.27;0.95;;;10.30;99.90;;;;;;4935202;29;20026;-78
2022/05/18 02:53:00;;;;;;;1.23;0.77;;;10.30;99.90;;;;;;4935356;29;20443;-78
2022/05/18 02:58:10;;;;;;;4.68;0.98;;;10.20;99.90;;;;;;4930428;29;20075;-77
2022/05/18 03:00:36;;;;;;;2.45;1.00;;;10.20;99.90;;;;;;4934390;29;20047;-78
2022/05/18 03:03:02;;;;;;;0.82;0.60;;;10.10;99.90;;;;;;4934809;29;20050;-78
2022/05/18 03:05:27;;;;;;;2.97;1.05;;;10.00;99.90;;;;;;4935621;29;20071;-78
2022/05/18 03:07:53;;;;;;;1.02;0.77;;;10.00;99.90;;;;;;4935474;29;20058;-78
2022/05/18 03:10:19;;;;;;;2.55;1.13;;;10.00;99.90;;;;;;4935158;29;20015;-78
2022/05/18 03:12:45;;;;;;;2.08;1.20;;;9.90;99.90;;;;;;4935520;29;20031;-78
2022/05/18 04:14:44;;;;;;;1.55;1.17;;;9.20;99.90;;;;;;5611732;23;20052;-78
2022/05/18 04:17:10;;;;;;;1.90;0.98;;;9.20;99.90;;;;;;4914364;29;20381;-78
2022/05/18 04:19:36;;;;;;;2.10;1.27;;;9.20;99.90;;;;;;4914817;29;20491;-78
2022/05/18 04:22:01;;;;;;;4.60;1.38;;;9.20;99.90;;;;;;4914954;29;20090;-79
2022/05/18 04:24:27;;;;;;;4.75;1.23;;;9.20;99.90;;;;;;4915041;29;20474;-78
2022/05/18 04:26:54;;;;;;;4.68;1.40;;;9.20;99.90;;;;;;4897878;29;20446;-78
2022/05/18 04:29:19;;;;;;;2.78;1.30;;;9.30;99.90;;;;;;4896318;29;20036;-79
2022/05/18 04:31:45;;;;;;;3.03;1.83;;;9.30;99.90;;;;;;4896332;29;20021;-78
2022/05/18 04:34:11;;;;;;;2.75;1.60;;;9.30;99.90;;;;;;4896451;29;20036;-78
2022/05/18 04:36:37;;;;;;;5.35;1.83;;;9.40;99.90;;;;;;4896521;29;20375;-78
2022/05/18 04:39:03;;;;;;;4.57;1.30;;;9.30;99.90;;;;;;4879920;29;20120;-78
2022/05/18 04:41:29;;;;;;;3.28;1.63;;;9.20;99.90;;;;;;4896463;29;20435;-78
2022/05/18 04:43:54;;;;;;;6.88;2.08;;;9.30;99.90;;;;;;4896594;29;20024;-78
2022/05/18 04:46:20;;;;;;;6.03;2.42;;;9.20;99.90;;;;;;4892779;29;20032;-79
2022/05/18 04:48:46;;;;;;;4.07;1.70;;;9.30;99.90;;;;;;4895754;29;20060;-79
2022/05/18 04:51:12;;;;;;;3.70;1.90;;;9.40;99.90;;;;;;4896381;29;20376;-79
2022/05/18 04:53:37;;;;;;;3.33;1.80;;;9.40;99.90;;;;;;4896355;29;20032;-79
2022/05/18 04:56:04;;;;;;;2.55;1.77;;;9.40;99.90;;;;;;4896303;29;20028;-79
2022/05/18 04:58:30;;;;;;;4.20;2.28;;;9.40;99.90;;;;;;4896504;29;20033;-79
2022/05/18 05:01:08;;;;;;;5.90;2.67;;;9.30;99.90;;;;;;4895655;29;20039;-79
2022/05/18 05:03:34;;;;;;;4.28;2.88;;;9.40;99.90;;;;;;4890454;29;20035;-79
2022/05/18 05:06:00;;;;;;;5.25;2.40;;;9.50;99.90;;;;;;4896075;29;20095;-79
2022/05/18 05:08:26;;;;;;;7.75;2.72;;;9.40;99.90;;;;;;4896448;29;20626;-79
2022/05/18 05:10:52;;;;;;;4.70;2.40;;;9.50;99.90;;;;;;4896185;29;20111;-79
2022/05/18 05:13:18;;;;;;;5.15;2.33;;;9.60;99.90;;;;;;4896590;29;20431;-79
2022/05/18 06:15:17;;;;;;;10.55;4.07;;;13.00;99.90;;;;;;5460541;23;20047;-79
2022/05/18 06:17:43;;;;;;;5.57;3.17;;;13.50;99.90;;;;;;4918613;29;20028;-80
2022/05/18 06:20:09;;;;;;;7.20;3.28;;;14.00;99.90;;;;;;4936394;29;20111;-79
2022/05/18 06:22:35;;;;;;;4.88;2.83;;;14.50;99.90;;;;;;4929735;29;20031;-79
2022/05/18 06:25:01;;;;;;;4.13;2.55;;;15.10;99.90;;;;;;4933626;29;20024;-78
2022/05/18 06:27:26;;;;;;;5.88;2.38;;;15.30;99.90;;;;;;4917143;29;20051;-78
2022/05/18 06:29:52;;;;;;;8.20;2.50;;;15.30;99.90;;;;;;4917321;29;20614;-79
2022/05/18 06:32:18;;;;;;;5.57;1.48;;;15.30;99.90;;;;;;4916970;29;20405;-78
2022/05/18 06:34:45;;;;;;;2.05;1.55;;;15.20;99.90;;;;;;4917509;29;20032;-79
2022/05/18 06:37:11;;;;;;;5.30;1.88;;;15.00;99.90;;;;;;4917756;29;20024;-79
2022/05/18 06:39:38;;;;;;;4.78;1.55;;;15.00;99.90;;;;;;4917624;29;20027;-79
2022/05/18 06:42:04;;;;;;;4.85;2.08;;;15.00;99.90;;;;;;4917624;29;20382;-79
2022/05/18 06:44:30;;;;;;;5.40;1.35;;;15.00;99.90;;;;;;4917182;29;20465;-79
2022/05/18 06:47:00;;;;;;;3.78;1.90;;;14.90;99.90;;;;;;4912595;29;20541;-77
2022/05/18 06:49:29;;;;;;;3.38;1.65;;;15.10;99.90;;;;;;4917152;29;20115;-79
2022/05/18 06:51:58;;;;;;;3.95;1.83;;;15.30;99.90;;;;;;4900339;29;20030;-79
2022/05/18 06:54:24;;;;;;;3.47;1.63;;;15.30;99.90;;;;;;4900183;29;20028;-79
2022/05/18 06:56:49;;;;;;;2.83;1.38;;;15.60;99.90;;;;;;4899703;29;20088;-82
2022/05/18 06:59:16;;;;;;;4.95;1.40;;;15.90;99.90;;;;;;4899865;29;20137;-81
2022/05/18 07:01:42;;;;;;;5.45;2.22;;;16.10;99.90;;;;;;4902301;29;20024;-80
2022/05/18 07:04:12;;;;;;;3.97;1.40;;;16.10;99.90;;;;;;4916820;29;20032;-80
2022/05/18 07:06:40;;;;;;;2.67;1.10;;;16.30;99.90;;;;;;4916469;29;20355;-80
2022/05/18 07:09:09;;;;;;;2.53;1.48;;;16.30;99.90;;;;;;4916113;29;20115;-81
2022/05/18 07:11:36;;;;;;;3.25;1.00;;;16.40;99.90;;;;;;4916688;29;20028;-81
2022/05/18 07:14:03;;;;;;;2.42;1.23;;;16.60;99.90;;;;;;4899525;29;20493;-80
2022/05/18 07:16:29;;;;;;;5.30;1.45;;;16.60;99.90;;;;;;4916734;29;20103;-81
2022/05/18 07:18:56;;;;;;;1.58;1.40;;;16.60;99.90;;;;;;4916763;29;20107;-82
2022/05/18 07:21:23;;;;;;;4.15;1.30;;;16.40;99.90;;;;;;4899540;29;20028;-82
2022/05/18 07:23:49;;;;;;;2.78;1.15;;;16.40;99.90;;;;;;4916689;29;20509;-82
2022/05/18 07:26:15;;;;;;;5.25;1.13;;;16.30;99.90;;;;;;4898860;29;20064;-82
2022/05/18 07:28:41;;;;;;;3.95;1.02;;;16.30;99.90;;;;;;4916299;29;20513;-82
2022/05/18 07:31:08;;;;;;;2.40;1.05;;;16.30;99.90;;;;;;4895259;29;20076;-81
2022/05/18 07:33:35;;;;;;;2.88;1.30;;;16.30;99.90;;;;;;4891724;29;20496;-79
2022/05/18 07:36:01;;;;;;;3.63;1.27;;;16.40;99.90;;;;;;4915439;29;20047;-79
2022/05/18 07:38:29;;;;;;;2.38;1.40;;;16.50;99.90;;;;;;4912658;29;20055;-79
2022/05/18 07:40:55;;;;;;;5.07;1.60;;;16.50;99.90;;;;;;4914993;29;20103;-79
2022/05/18 07:43:21;;;;;;;7.25;2.35;;;16.50;99.90;;;;;;4916059;29;20031;-79
2022/05/18 10:44:33;;;;;;;2.72;0.38;;;31.10;40.70;;;;;;5909172;23;20007;-78
2022/05/18 10:47:18;;;;;;;2.88;0.75;;;30.80;45.00;;;;;;4917910;29;20054;-79
2022/05/18 10:49:45;;;;;;;2.65;0.50;;;31.50;49.10;;;;;;4928617;29;20032;-79
2022/05/18 10:52:15;;;;;;;2.92;0.40;;;33.10;44.90;;;;;;4935818;29;20027;-79
2022/05/18 10:54:59;;;;;;;3.13;0.57;;;32.80;41.40;;;;;;4935243;29;20028;-80
2022/05/18 10:57:34;;;;;;;3.47;0.60;;;33.20;40.80;;;;;;4917387;29;20386;-79
2022/05/18 11:00:20;;;;;;;1.30;0.50;;;34.00;38.40;;;;;;4917145;29;20172;-80
2022/05/18 11:02:59;;;;;;;2.17;0.35;;;32.60;40.90;;;;;;4912319;29;20043;-79
2022/05/18 11:05:27;;;;;;;1.95;0.50;;;32.20;39.80;;;;;;4917297;29;20020;-79
2022/05/18 11:07:53;;;;;;;4.50;0.68;;;31.60;41.70;;;;;;4900507;29;20047;-79
2022/05/18 11:10:20;;;;;;;4.93;0.65;;;31.30;39.40;;;;;;4916935;29;20067;-79
2022/05/18 11:13:10;;;;;;;2.05;0.45;;;30.60;42.90;;;;;;4916795;29;20043;-79
2022/05/18 11:15:47;;;;;;;3.20;0.50;;;32.30;40.50;;;;;;4907621;29;20024;-78
2022/05/18 11:18:12;;;;;;;3.65;0.40;;;33.50;41.70;;;;;;4899846;29;20486;-79
2022/05/18 11:21:16;;;;;;;2.90;0.60;;;33.60;36.90;;;;;;4917094;29;20488;-79
2022/05/18 11:24:14;;;;;;;1.50;0.40;;;33.60;36.50;;;;;;4869203;29;20092;-80
2022/05/18 11:27:02;;;;;;;2.40;0.57;;;34.60;39.10;;;;;;4914461;29;20057;-79
2022/05/18 11:30:04;;;;;;;3.10;0.50;;;34.00;36.30;;;;;;4917222;29;20024;-79
2022/05/18 11:32:30;;;;;;;1.90;0.60;;;34.10;37.90;;;;;;4916510;29;20031;-79
2022/05/18 11:35:14;;;;;;;3.88;0.65;;;34.70;38.30;;;;;;4917003;29;20032;-79
2022/05/18 11:37:59;;;;;;;2.63;0.43;;;33.20;36.80;;;;;;4916770;29;20028;-79
2022/05/18 11:40:53;;;;;;;2.60;0.50;;;32.60;38.80;;;;;;4916773;29;20032;-80
2022/05/18 11:43:38;;;;;;;1.98;0.35;;;31.80;39.80;;;;;;4916600;29;20016;-79
2022/05/18 12:45:47;;;;;;;0.98;0.20;;;34.20;34.30;;;;;;5399979;23;20111;-81
2022/05/18 12:48:45;;;;;;;2.03;0.20;;;34.80;34.50;;;;;;4952781;29;20019;-80
2022/05/18 12:51:29;;;;;;;1.27;0.20;;;35.10;33.70;;;;;;4922767;29;21130;-80
2022/05/18 12:54:09;;;;;;;2.85;0.52;;;35.20;32.30;;;;;;4952884;29;20576;-80
2022/05/18 12:56:35;;;;;;;2.95;0.40;;;36.10;32.80;;;;;;4943730;29;20429;-80
2022/05/18 12:59:21;;;;;;;0.95;0.30;;;36.50;31.90;;;;;;4934331;29;20481;-81
2022/05/18 13:02:03;;;;;;;2.78;0.30;;;36.70;29.40;;;;;;4929406;29;20181;-80
2022/05/18 13:04:42;;;;;;;3.58;0.55;;;35.50;30.40;;;;;;4929696;29;20102;-80
2022/05/18 13:07:41;;;;;;;3.03;0.60;;;35.60;30.90;;;;;;4934337;29;20034;-80
2022/05/18 13:10:14;;;;;;;1.80;0.30;;;35.50;33.10;;;;;;4902079;29;20119;-80
2022/05/18 13:13:19;;;;;;;2.22;0.50;;;34.60;33.10;;;;;;4934136;29;20031;-80
2022/05/18 13:15:56;;;;;;;3.13;0.50;;;33.90;31.10;;;;;;4929863;29;20023;-79
2022/05/18 13:18:36;;;;;;;1.58;0.30;;;32.00;33.80;;;;;;4933877;29;20034;-79
2022/05/18 13:21:07;;;;;;;3.80;0.85;;;30.90;35.40;;;;;;4934253;29;20027;-80
2022/05/18 13:23:39;;;;;;;0.60;0.30;;;30.10;36.90;;;;;;4916871;29;20028;-80
2022/05/18 13:26:07;;;;;;;;;;;29.60;37.70;;;;;;4928202;29;20437;-80
2022/05/18 13:28:34;;;;;;;2.80;0.40;;;29.60;38.80;;;;;;4934401;29;19910;-80
2022/05/18 13:31:02;;;;;;;3.92;0.30;;;29.50;39.40;;;;;;4933722;29;20034;-80
2022/05/18 13:33:36;;;;;;;2.95;0.60;;;29.40;40.60;;;;;;4933908;29;20028;-80
2022/05/18 13:36:03;;;;;;;1.73;0.50;;;28.30;38.60;;;;;;4927308;29;20016;-80
2022/05/18 13:38:32;;;;;;;2.22;0.32;;;27.20;43.20;;;;;;4920439;29;20040;-79
2022/05/18 13:41:08;;;;;;;1.67;0.28;;;26.30;47.80;;;;;;4937892;29;20034;-80
2022/05/18 13:43:36;;;;;;;1.08;0.65;;;25.80;45.60;;;;;;4937744;29;20024;-80
2022/05/18 13:46:35;;;;;;;2.50;0.55;;;24.70;50.20;;;;;;4916952;29;20031;-79
2022/05/18 13:49:19;;;;;;;3.72;0.65;;;23.70;55.90;;;;;;4908255;29;20484;-78
2022/05/18 13:51:49;;;;;;;4.75;0.68;;;22.80;59.60;;;;;;4937662;29;20377;-78
2022/05/18 13:54:25;;;;;;;3.90;0.60;;;22.30;60.10;;;;;;4931124;29;20479;-79
2022/05/18 13:56:58;;;;;;;4.78;0.75;;;22.10;63.20;;;;;;4937679;29;20134;-79
2022/05/18 13:59:36;;;;;;;6.82;0.75;;;22.20;65.10;;;;;;4937371;29;20058;-78
2022/05/18 14:02:13;;;;;;;4.05;0.82;;;22.80;66.50;;;;;;4929724;29;20025;-78
2022/05/18 14:04:41;;;;;;;1.88;0.40;;;23.00;66.50;;;;;;4937136;29;20492;-79
2022/05/18 14:07:07;;;;;;;0.60;0.57;;;22.80;65.30;;;;;;4920362;29;20111;-79
2022/05/18 14:09:40;;;;;;;3.17;0.82;;;22.20;63.80;;;;;;4937234;29;20031;-79
2022/05/18 14:12:12;;;;;;;3.67;0.93;;;21.60;65.70;;;;;;4937385;29;20074;-79
2022/05/18 14:14:37;;;;;;;2.90;1.13;;;21.20;69.20;;;;;;4937135;29;20047;-79
2022/05/18 14:17:11;;;;;;;2.53;0.95;;;21.00;76.10;;;;;;4937256;29;20031;-79
2022/05/18 14:19:42;;;;;;;3.28;0.98;;;21.00;77.50;;;;;;4944079;29;20032;-79
2022/05/18 14:22:13;;;;;;;4.30;0.75;;;21.00;71.90;;;;;;4937237;29;20082;-79
2022/05/18 14:24:48;;;;;;;4.47;1.23;;;21.10;74.50;;;;;;4936780;29;20035;-79
2022/05/18 14:27:19;;;;;;;1.48;0.70;;;21.20;74.80;;;;;;4936594;29;20022;-79
2022/05/18 14:29:53;;;;;;;3.08;0.93;;;21.20;73.50;;;;;;4936563;29;20206;-79
2022/05/18 14:32:29;;;;;;;2.90;0.47;;;21.70;68.50;;;;;;4937341;29;20028;-78
2022/05/18 14:35:01;;;;;;;2.58;0.60;;;22.10;67.30;;;;;;4919455;29;20024;-84
2022/05/18 14:37:34;;;;;;;3.25;0.63;;;22.80;65.50;;;;;;4936286;29;20719;-80
2022/05/18 14:40:06;;;;;;;1.27;0.50;;;23.40;63.50;;;;;;4936154;29;20051;-79
2022/05/18 14:42:44;;;;;;;3.45;0.68;;;23.40;63.70;;;;;;4936584;29;20024;-79
2022/05/18 14:45:22;;;;;;;4.35;0.63;;;24.50;64.10;;;;;;4930633;29;20035;-79
2022/05/18 14:48:09;;;;;;;3.17;0.73;;;24.60;61.20;;;;;;4928833;29;20019;-79
2022/05/18 14:50:46;;;;;;;8.27;0.68;;;24.20;61.00;;;;;;4930123;29;20024;-78
2022/05/18 14:53:30;;;;;;;3.10;0.77;;;24.30;63.10;;;;;;4936274;29;20015;-78
2022/05/18 14:56:04;;;;;;;2.85;0.73;;;25.50;59.00;;;;;;4942672;29;20039;-82
2022/05/18 14:58:38;;;;;;;3.67;0.68;;;26.10;56.60;;;;;;4918876;29;20504;-80
2022/05/18 15:01:09;;;;;;;2.38;0.52;;;26.80;54.50;;;;;;4933298;29;20273;-81
2022/05/18 15:03:40;;;;;;;1.45;0.50;;;27.40;53.60;;;;;;4932281;29;20106;-80
2022/05/18 15:06:09;;;;;;;3.10;0.70;;;28.40;52.60;;;;;;4918808;29;20060;-79
2022/05/18 15:08:49;;;;;;;2.47;0.30;;;28.80;51.30;;;;;;4918734;29;20110;-83
2022/05/18 15:11:46;;;;;;;2.70;0.22;;;30.40;48.10;;;;;;4935841;29;20019;-82
2022/05/18 15:14:37;;;;;;;1.83;0.32;;;30.60;43.70;;;;;;4912901;29;20016;-79
2022/05/18 15:17:19;;;;;;;1.50;0.20;;;29.70;46.40;;;;;;4925403;29;20346;-79
2022/05/18 15:19:55;;;;;;;0.60;0.20;;;29.60;45.50;;;;;;4923808;29;20489;-79
2022/05/18 15:22:34;;;;;;;0.63;0.10;;;30.90;43.60;;;;;;4922731;29;20032;-79
2022/05/18 15:25:38;;;;;;;0.57;0.13;;;31.40;46.70;;;;;;4929123;29;20107;-80
2022/05/18 15:28:26;;;;;;;2.13;0.63;;;31.10;42.90;;;;;;4926584;29;20039;-79
2022/05/18 15:31:08;;;;;;;0.20;0.10;;;31.60;42.90;;;;;;4928478;29;20055;-79
2022/05/18 15:33:43;;;;;;;0.80;0.40;;;31.70;41.80;;;;;;4922579;29;20028;-79
2022/05/18 15:36:09;;;;;;;0.65;0.20;;;31.20;42.70;;;;;;4928452;29;20099;-80
2022/05/18 15:38:35;;;;;;;1.00;0.10;;;30.00;44.60;;;;;;4930862;29;20036;-78
2022/05/18 15:41:02;;;;;;;0.57;0.20;;;28.60;45.50;;;;;;4929682;29;20406;-80
2022/05/18 15:43:27;;;;;;;1.30;0.20;;;28.40;47.30;;;;;;4912063;29;20027;-84
2022/05/18 15:46:00;;;;;;;0.45;0.10;;;28.20;47.60;;;;;;4913780;29;20035;-82
2022/05/18 15:48:28;;;;;;;0.32;0.20;;;28.00;47.90;;;;;;4930993;29;20035;-84
2022/05/18 15:50:54;;;;;;;2.38;0.30;;;27.00;49.70;;;;;;4931363;29;20024;-81
2022/05/18 15:53:25;;;;;;;0.95;0.40;;;26.80;51.30;;;;;;4930673;29;20453;-82
2022/05/18 15:55:57;;;;;;;10.87;0.93;;;27.00;52.30;;;;;;4931162;29;20024;-81
2022/05/18 15:58:23;;;;;;;1.58;0.38;;;27.30;50.60;;;;;;4930722;29;20023;-78
2022/05/18 16:00:49;;;;;;;1.35;0.20;;;27.30;52.00;;;;;;4929940;29;20042;-79
2022/05/18 16:03:15;;;;;;;1.27;0.32;;;27.60;50.10;;;;;;4917719;29;20024;-79
2022/05/18 16:05:40;;;;;;;0.90;0.30;;;26.80;52.10;;;;;;4922255;29;20511;-79
2022/05/18 16:08:06;;;;;;;0.40;0.20;;;25.80;53.20;;;;;;4916415;29;20038;-79
2022/05/18 16:10:32;;;;;;;0.28;0.20;;;25.30;52.90;;;;;;4915667;29;20024;-79
2022/05/18 16:12:58;;;;;;;1.83;0.50;;;24.90;55.20;;;;;;4917105;29;20083;-80
2022/05/18 16:15:24;;;;;;;3.22;0.28;;;24.70;57.00;;;;;;4921974;29;20152;-79
2022/05/18 16:17:51;;;;;;;0.30;0.10;;;24.40;56.10;;;;;;4914681;29;20054;-81
2022/05/18 16:20:18;;;;;;;0.65;0.30;;;24.30;58.10;;;;;;4921844;29;20063;-79
2022/05/18 16:22:45;;;;;;;1.23;0.22;;;24.10;56.70;;;;;;4918895;29;20035;-79
2022/05/18 16:25:33;;;;;;;1.30;0.50;;;24.00;57.60;;;;;;4917144;29;20490;-80
2022/05/18 16:28:00;;;;;;;1.35;0.75;;;23.60;60.20;;;;;;4904216;29;20366;-80
2022/05/18 16:30:26;;;;;;;1.27;0.30;;;23.40;60.10;;;;;;4925900;29;20059;-79
2022/05/18 16:32:52;;;;;;;2.05;0.57;;;23.10;62.10;;;;;;4926638;29;20046;-78
2022/05/18 16:35:19;;;;;;;2.22;0.60;;;23.10;60.60;;;;;;4931898;29;20016;-79
2022/05/18 16:37:47;;;;;;;0.82;0.32;;;23.00;60.90;;;;;;4932824;29;20090;-79
2022/05/18 16:40:13;;;;;;;0.50;0.38;;;22.80;60.40;;;;;;4932431;29;20028;-79
2022/05/18 16:42:41;;;;;;;0.28;0.17;;;22.80;60.60;;;;;;4932500;29;20544;-79
2022/05/18 16:45:11;;;;;;;1.45;0.40;;;22.60;60.90;;;;;;4933507;29;20028;-78
2022/05/18 16:47:44;;;;;;;3.22;0.20;;;22.60;61.40;;;;;;4915210;29;20023;-77
2022/05/18 16:50:10;;;;;;;5.13;1.23;;;22.20;61.00;;;;;;4931837;29;20058;-78
2022/05/18 16:52:37;;;;;;;1.95;0.30;;;22.00;62.80;;;;;;4932972;29;20024;-78
2022/05/18 16:55:04;;;;;;;1.33;0.38;;;21.70;64.40;;;;;;4932271;29;20498;-79
2022/05/18 16:57:33;;;;;;;2.10;0.47;;;21.60;64.20;;;;;;4932483;29;20058;-78
2022/05/18 16:59:59;;;;;;;2.45;0.47;;;21.50;64.10;;;;;;4932906;29;20138;-79
2022/05/18 17:02:27;;;;;;;1.48;0.30;;;21.30;66.50;;;;;;4927558;29;20042;-78
2022/05/18 17:07:37;;;;;;;0.88;0.30;;;21.10;66.60;;;;;;4932886;29;20060;-83
2022/05/18 17:10:04;;;;;;;0.93;0.40;;;21.00;67.60;;;;;;4933064;29;20086;-78
2022/05/18 17:12:34;;;;;;;0.40;0.30;;;20.80;68.60;;;;;;4939154;29;20016;-79
2022/05/18 17:15:00;;;;;;;1.90;0.60;;;20.70;68.40;;;;;;4932362;29;20066;-79
2022/05/18 17:17:29;;;;;;;1.80;0.25;;;20.70;68.10;;;;;;4938472;29;20019;-79
2022/05/18 17:19:55;;;;;;;0.52;0.20;;;20.70;68.90;;;;;;4921247;29;20178;-79
2022/05/18 17:22:20;;;;;;;1.02;0.40;;;20.70;69.90;;;;;;4939169;29;20491;-79
2022/05/18 17:24:46;;;;;;;2.38;0.47;;;20.70;69.20;;;;;;4938873;29;20035;-79
2022/05/18 17:27:13;;;;;;;4.35;0.40;;;20.70;67.90;;;;;;4915718;29;20052;-78
2022/05/18 17:30:09;;;;;;;0.70;0.25;;;20.50;70.40;;;;;;4915430;29;20036;-78
2022/05/18 17:32:41;;;;;;;2.72;0.50;;;20.50;68.00;;;;;;4937656;29;20020;-79
2022/05/18 17:35:12;;;;;;;0.40;0.20;;;20.50;68.80;;;;;;4938209;29;20028;-79
2022/05/18 17:37:37;;;;;;;1.67;0.30;;;20.50;70.50;;;;;;4934568;29;20062;-78
2022/05/18 17:40:04;;;;;;;0.88;0.40;;;20.60;69.70;;;;;;4922453;29;20067;-78
2022/05/18 17:42:31;;;;;;;0.30;0.20;;;20.60;67.90;;;;;;4939181;29;20019;-78
2022/05/18 17:44:57;;;;;;;0.10;0.10;;;20.70;70.10;;;;;;4940411;29;20051;-78
2022/05/18 17:47:26;;;;;;;1.25;0.20;;;20.60;67.60;;;;;;4938845;29;20105;-78
2022/05/18 17:49:53;;;;;;;1.10;0.30;;;20.60;68.90;;;;;;4939660;29;20024;-78
2022/05/18 17:52:24;;;;;;;0.50;0.25;;;20.50;68.60;;;;;;4939227;29;20019;-78
2022/05/18 17:54:49;;;;;;;1.30;0.20;;;20.50;71.00;;;;;;4939324;29;20055;-78
2022/05/18 17:57:15;;;;;;;0.95;0.30;;;20.50;70.00;;;;;;4939341;29;20040;-79
2022/05/18 17:59:42;;;;;;;1.27;0.20;;;20.50;70.30;;;;;;4939890;29;20063;-79
2022/05/18 18:02:17;;;;;;;0.40;0.20;;;20.50;71.50;;;;;;4934479;29;20469;-79
2022/05/18 18:04:44;;;;;;;0.40;0.20;;;20.40;71.30;;;;;;4939714;29;20034;-79
2022/05/18 18:07:15;;;;;;;0.55;0.30;;;20.30;71.30;;;;;;4939069;29;20058;-79
2022/05/18 18:09:41;;;;;;;1.13;0.20;;;20.20;72.10;;;;;;4921762;29;20115;-78
2022/05/18 18:12:07;;;;;;;1.40;0.30;;;20.00;73.50;;;;;;4938884;29;20030;-78
2022/05/18 18:14:33;;;;;;;0.70;0.40;;;19.70;75.00;;;;;;4939626;29;20027;-78
2022/05/18 18:17:00;;;;;;;0.20;0.20;;;19.60;75.80;;;;;;4938655;29;20380;-78
2022/05/18 18:19:34;;;;;;;0.22;0.20;;;19.50;75.90;;;;;;4945681;29;20028;-78
2022/05/18 18:21:59;;;;;;;1.33;0.30;;;19.40;77.90;;;;;;4937724;29;20035;-77
2022/05/18 18:24:27;;;;;;;0.65;0.47;;;19.30;77.60;;;;;;4936555;29;20024;-78
2022/05/18 18:26:53;;;;;;;0.77;0.20;;;19.20;77.20;;;;;;4935958;29;20027;-78
2022/05/18 18:29:19;;;;;;;0.90;0.40;;;19.00;78.00;;;;;;4936500;29;20031;-78
2022/05/18 18:31:46;;;;;;;0.98;0.50;;;19.00;79.60;;;;;;4928527;29;20393;-80
2022/05/18 18:34:12;;;;;;;1.45;0.40;;;18.80;79.40;;;;;;4933205;29;20551;-79
2022/05/18 18:36:42;;;;;;;1.30;0.43;;;18.80;80.70;;;;;;4932506;29;20362;-82
2022/05/18 18:39:12;;;;;;;2.47;0.30;;;18.60;81.40;;;;;;4932929;29;20134;-81
2022/05/18 18:41:43;;;;;;;1.55;0.20;;;18.60;82.90;;;;;;4932659;29;20023;-82
2022/05/18 18:44:11;;;;;;;1.77;0.35;;;18.60;82.30;;;;;;4915813;29;20024;-78
2022/05/18 18:46:38;;;;;;;0.93;0.32;;;18.50;81.10;;;;;;4932382;29;20044;-79
2022/05/18 18:49:06;;;;;;;0.70;0.30;;;18.30;83.50;;;;;;4916011;29;20556;-84
2022/05/18 18:54:42;;;;;;;0.55;0.30;;;18.10;86.40;;;;;;4910319;29;20069;-80
2022/05/18 18:57:13;;;;;;;0.45;0.20;;;18.10;84.60;;;;;;4915464;29;20024;-80
2022/05/18 18:59:39;;;;;;;0.50;0.30;;;17.90;85.20;;;;;;4939769;29;20754;-83
2022/05/18 19:02:06;;;;;;;0.35;0.30;;;17.90;87.50;;;;;;4930252;29;20262;-91
2022/05/18 19:04:32;;;;;;;1.33;0.32;;;17.90;86.10;;;;;;4933891;29;20031;-83
2022/05/18 19:07:06;;;;;;;0.20;0.20;;;17.80;86.90;;;;;;4932946;29;20059;-84
2022/05/18 19:09:36;;;;;;;1.05;0.30;;;17.80;89.00;;;;;;4909553;29;20374;-82
2022/05/18 19:12:03;;;;;;;0.30;0.30;;;17.70;89.50;;;;;;4915578;29;20079;-83
2022/05/18 19:14:30;;;;;;;1.35;0.60;;;17.70;90.10;;;;;;4932691;29;20115;-83
2022/05/18 19:16:58;;;;;;;0.85;0.55;;;17.60;89.60;;;;;;4914954;29;20638;-82
2022/05/18 19:19:27;;;;;;;0.68;0.35;;;17.50;92.60;;;;;;4909261;29;20517;-85
2022/05/18 19:21:54;;;;;;;2.45;0.45;;;17.50;90.20;;;;;;4932479;29;20218;-84
2022/05/18 19:24:21;;;;;;;0.65;0.43;;;17.50;91.20;;;;;;4932223;29;20066;-78
2022/05/18 19:26:48;;;;;;;0.70;0.30;;;17.40;90.20;;;;;;4931763;29;20020;-80
2022/05/18 19:29:17;;;;;;;1.10;0.43;;;17.30;90.60;;;;;;4931917;29;20024;-82
2022/05/18 19:31:42;;;;;;;1.08;0.30;;;17.20;91.30;;;;;;4929890;29;20020;-77
2022/05/18 19:34:08;;;;;;;1.00;0.30;;;17.20;91.80;;;;;;4932560;29;20588;-78
2022/05/18 19:36:34;;;;;;;1.60;0.38;;;17.10;93.40;;;;;;4930979;29;20062;-79
2022/05/18 19:39:00;;;;;;;1.15;0.45;;;17.10;93.10;;;;;;4916767;29;20043;-78
2022/05/18 19:41:25;;;;;;;1.15;0.70;;;17.10;93.30;;;;;;4933223;29;20318;-78
2022/05/18 19:43:51;;;;;;;0.68;0.22;;;17.00;93.50;;;;;;4934317;29;20039;-79
2022/05/18 19:46:23;;;;;;;3.80;0.68;;;17.00;95.10;;;;;;4950721;23;20596;-79
2022/05/18 19:48:51;;;;;;;;;;;17.00;95.20;;;;;;4934286;29;20115;-78
2022/05/18 19:51:24;;;;;;;1.10;0.38;;;17.00;94.90;;;;;;4932960;29;19913;-79
2022/05/18 19:53:52;;;;;;;1.70;0.47;;;17.00;94.20;;;;;;4899396;29;20075;-79
2022/05/18 19:56:26;;;;;;;1.73;0.45;;;17.00;95.70;;;;;;4909152;29;20024;-78
2022/05/18 19:58:57;;;;;;;0.95;0.47;;;17.10;96.00;;;;;;4895710;29;20035;-79
2022/05/18 20:01:23;;;;;;;1.35;0.43;;;17.10;94.10;;;;;;4898330;29;20024;-82
2022/05/18 20:03:55;;;;;;;0.65;0.20;;;17.20;93.70;;;;;;4899629;29;20027;-84
2022/05/18 20:06:20;;;;;;;;;;;17.20;94.90;;;;;;4894627;29;20035;-82
2022/05/18 20:08:46;;;;;;;0.77;0.30;;;17.30;94.70;;;;;;4893293;29;19911;-81
2022/05/18 20:11:14;;;;;;;1.20;0.30;;;17.30;93.80;;;;;;4893855;29;20079;-82
2022/05/18 20:13:49;;;;;;;1.42;0.50;;;17.30;94.50;;;;;;4892682;29;20182;-80
2022/05/18 20:16:17;;;;;;;1.75;0.40;;;17.30;94.80;;;;;;4900382;29;20047;-78
2022/05/18 20:18:43;;;;;;;2.35;0.50;;;17.30;96.00;;;;;;4893261;29;20044;-79
2022/05/18 20:21:09;;;;;;;1.52;0.57;;;17.20;95.70;;;;;;4893742;29;20023;-79
2022/05/18 20:23:35;;;;;;;0.75;0.40;;;17.20;95.90;;;;;;4893548;29;20067;-81